Time;durP1;ratioP1;P1;durP2;ratioP2;P2;SDS_P1;SDS_P2;PMS_P1;PMS_P2;Temp;Humidity;BMP_temperature;BMP_pressure;BME280_temperature;BME280_humidity;BME280_pressure;Samples;Min_cycle;Max_cycle;Signal;HPM_P1;HPM_P2
2021/10/02 06:00:58;;;;;;;;;;;14.90;99.90;;;;;;5638325;23;19927;-79
2021/10/02 06:03:25;;;;;;;;;;;14.90;99.90;;;;;;4897563;29;19929;-79
2021/10/02 06:05:52;;;;;;;;;;;14.90;99.90;;;;;;4915339;29;19986;-79
2021/10/02 06:08:18;;;;;;;;;;;15.00;99.90;;;;;;4914713;29;19927;-79
2021/10/02 06:10:45;;;;;;;;;;;15.00;99.90;;;;;;4914259;29;19979;-79
2021/10/02 06:13:12;;;;;;;;;;;15.10;99.90;;;;;;4915471;29;19927;-78
2021/10/02 06:15:39;;;;;;;;;;;15.10;99.90;;;;;;4915091;29;19987;-80
2021/10/02 06:18:05;;;;;;;;;;;15.10;99.90;;;;;;4915355;29;19926;-78
2021/10/02 06:20:32;;;;;;;;;;;15.20;99.90;;;;;;4914901;29;19962;-81
2021/10/02 06:23:03;;;;;;;;;;;15.20;99.90;;;;;;4914947;29;19938;-79
2021/10/02 06:25:33;;;;;;;;;;;15.20;99.90;;;;;;4914751;29;19923;-80
2021/10/02 06:28:00;;;;;;;;;;;15.20;99.90;;;;;;4914996;29;20013;-81
2021/10/02 06:30:27;;;;;;;;;;;15.30;99.90;;;;;;4914471;29;19923;-79
2021/10/02 06:32:53;;;;;;;;;;;15.30;99.90;;;;;;4914669;29;19990;-81
2021/10/02 06:35:20;;;;;;;;;;;15.40;99.90;;;;;;4914848;29;20280;-79
2021/10/02 06:37:47;;;;;;;;;;;15.30;99.90;;;;;;4915047;29;19927;-80
2021/10/02 06:40:14;;;;;;;;;;;15.40;99.90;;;;;;4910174;29;20419;-80
2021/10/02 06:42:41;;;;;;;;;;;15.40;99.90;;;;;;4914624;29;19934;-80
2021/10/02 06:45:08;;;;;;;;;;;15.40;99.90;;;;;;4914389;29;19923;-79
2021/10/02 06:47:35;;;;;;;;;;;15.40;99.90;;;;;;4914381;29;19947;-79
2021/10/02 06:50:02;;;;;;;;;;;15.50;99.90;;;;;;4914671;29;19971;-80
2021/10/02 06:52:29;;;;;;;;;;;15.50;99.90;;;;;;4895982;29;20038;-80
2021/10/02 06:54:57;;;;;;;;;;;15.50;99.90;;;;;;4907432;29;20419;-81
2021/10/02 06:57:24;;;;;;;;;;;15.60;99.90;;;;;;4909133;29;19977;-78
2021/10/02 06:59:50;;;;;;;;;;;15.60;99.90;;;;;;4908253;29;19982;-80
2021/10/02 07:02:17;;;;;;;;;;;15.60;99.90;;;;;;4892359;29;19931;-79
2021/10/02 07:04:45;;;;;;;;;;;15.70;99.90;;;;;;4905544;29;19933;-80
2021/10/02 07:07:12;;;;;;;;;;;15.70;99.90;;;;;;4910798;29;20010;-80
2021/10/02 07:09:38;;;;;;;;;;;15.70;99.90;;;;;;4907879;29;19956;-80
2021/10/02 07:12:05;;;;;;;;;;;15.70;99.90;;;;;;4907512;29;19973;-80
2021/10/02 07:14:32;;;;;;;;;;;15.70;99.90;;;;;;4904499;29;19927;-79
2021/10/02 07:16:58;;;;;;;;;;;15.70;99.90;;;;;;4910585;29;19926;-79
2021/10/02 07:19:25;;;;;;;;;;;15.80;99.90;;;;;;4906779;29;19927;-79
2021/10/02 07:21:52;;;;;;;;;;;15.80;99.90;;;;;;4910443;29;19926;-78
2021/10/02 07:24:19;;;;;;;;;;;15.80;99.90;;;;;;4908854;29;20033;-80
2021/10/02 07:26:45;;;;;;;;;;;15.80;99.90;;;;;;4906627;29;19931;-79
2021/10/02 07:29:12;;;;;;;;;;;15.80;99.90;;;;;;4906060;29;19979;-79
2021/10/02 07:31:39;;;;;;;;;;;15.90;99.90;;;;;;4909190;29;19931;-79
2021/10/02 07:34:06;;;;;;;;;;;15.90;99.90;;;;;;4901626;29;20752;-78
2021/10/02 07:36:33;;;;;;;;;;;15.90;99.90;;;;;;4909871;29;20315;-79
2021/10/02 07:39:00;;;;;;;;;;;15.90;99.90;;;;;;4898599;29;20556;-76
2021/10/02 07:41:26;;;;;;;;;;;15.90;99.90;;;;;;4895780;29;19930;-79
2021/10/02 07:43:59;;;;;;;;;;;15.90;99.90;;;;;;4906882;29;19923;-79
2021/10/02 07:46:26;;;;;;;;;;;15.90;99.90;;;;;;4908802;29;20372;-80
2021/10/02 07:48:53;;;;;;;;;;;15.90;99.90;;;;;;4889566;29;19928;-79
2021/10/02 07:51:21;;;;;;;;;;;16.00;99.90;;;;;;4908494;29;19970;-80
2021/10/02 07:53:50;;;;;;;;;;;16.00;99.90;;;;;;4904919;29;19991;-80
2021/10/02 07:56:17;;;;;;;;;;;16.00;99.90;;;;;;4909408;29;20443;-80
2021/10/02 07:58:45;;;;;;;;;;;16.00;99.90;;;;;;4903004;29;20017;-79
2021/10/02 08:01:12;;;;;;;;;;;16.00;99.90;;;;;;4904603;29;19979;-78
2021/10/02 08:03:40;;;;;;;;;;;16.00;99.90;;;;;;4889704;29;20899;-79
2021/10/02 08:06:07;;;;;;;;;;;16.00;99.90;;;;;;4907352;29;19979;-79
2021/10/02 08:08:34;;;;;;;;;;;16.00;99.90;;;;;;4903321;29;19927;-80
2021/10/02 08:11:03;;;;;;;;;;;16.00;99.90;;;;;;4902970;29;19970;-77
2021/10/02 08:13:30;;;;;;;;;;;15.90;99.90;;;;;;4901680;29;20015;-78
2021/10/02 08:15:59;;;;;;;;;;;16.00;99.90;;;;;;4903208;29;19978;-77
2021/10/02 08:18:27;;;;;;;;;;;16.00;99.90;;;;;;4905115;29;19927;-78
2021/10/02 08:20:54;;;;;;;;;;;16.00;99.90;;;;;;4903362;29;20010;-77
2021/10/02 08:23:22;;;;;;;;;;;16.00;99.90;;;;;;4903572;29;19928;-77
2021/10/02 08:25:50;;;;;;;;;;;16.00;99.90;;;;;;4890118;29;19981;-76
2021/10/02 08:28:17;;;;;;;;;;;16.00;99.90;;;;;;4908348;29;19930;-75
2021/10/02 08:30:44;;;;;;;;;;;16.00;99.90;;;;;;4909976;29;19923;-76
2021/10/02 08:33:12;;;;;;;;;;;16.00;99.90;;;;;;4908140;29;19931;-75
2021/10/02 08:35:40;;;;;;;;;;;16.00;99.90;;;;;;4911681;29;19978;-75
2021/10/02 08:38:07;;;;;;;;;;;16.00;99.90;;;;;;4908585;29;19927;-79
2021/10/02 08:40:34;;;;;;;;;;;16.00;99.90;;;;;;4908776;29;19986;-76
2021/10/02 08:43:01;;;;;;;;;;;16.00;99.90;;;;;;4908986;29;19974;-76
2021/10/02 08:45:29;;;;;;;;;;;16.10;99.90;;;;;;4908740;29;19978;-77
2021/10/02 08:47:56;;;;;;;;;;;16.10;99.90;;;;;;4908769;29;20011;-77
2021/10/02 08:50:24;;;;;;;;;;;16.10;99.90;;;;;;4908639;29;19931;-77
2021/10/02 08:52:52;;;;;;;;;;;16.10;99.90;;;;;;4906429;29;19926;-78
2021/10/02 08:55:20;;;;;;;;;;;16.10;99.90;;;;;;4896392;29;19927;-77
2021/10/02 08:57:49;;;;;;;;;;;16.20;99.90;;;;;;4912115;29;19960;-77
2021/10/02 09:00:18;;;;;;;;;;;16.20;99.90;;;;;;4912697;29;19923;-78
2021/10/02 09:02:45;;;;;;;;;;;16.20;99.90;;;;;;4913290;29;19931;-78
2021/10/02 09:05:13;;;;;;;;;;;16.20;99.90;;;;;;4913664;29;19927;-78
2021/10/02 09:07:43;;;;;;;;;;;16.10;99.90;;;;;;4913315;29;19974;-79
2021/10/02 09:10:11;;;;;;;;;;;16.10;99.90;;;;;;4915811;29;20442;-79
2021/10/02 09:12:38;;;;;;;;;;;16.10;99.90;;;;;;4913953;29;20299;-78
2021/10/02 09:15:06;;;;;;;;;;;16.00;99.90;;;;;;4913684;29;20001;-77
2021/10/02 09:17:33;;;;;;;;;;;16.00;99.90;;;;;;4913826;29;20396;-78
2021/10/02 09:20:00;;;;;;;;;;;16.00;99.90;;;;;;4914130;29;19926;-78
2021/10/02 09:22:27;;;;;;;;;;;16.00;99.90;;;;;;4914819;29;20344;-78
2021/10/02 09:24:56;;;;;;;;;;;15.90;99.90;;;;;;4914886;29;20002;-79
2021/10/02 09:27:25;;;;;;;;;;;15.90;99.90;;;;;;4897716;29;19951;-79
2021/10/02 09:30:21;;;;;;;;;;;15.90;99.90;;;;;;4906665;29;19958;-79
2021/10/02 09:33:00;;;;;;;;;;;15.90;99.90;;;;;;4896927;29;20022;-79
2021/10/02 09:35:27;;;;;;;;;;;15.90;99.90;;;;;;4903509;29;20014;-80
2021/10/02 09:37:55;;;;;;;;;;;15.90;99.90;;;;;;4911252;29;19973;-79
2021/10/02 09:40:23;;;;;;;;;;;15.90;99.90;;;;;;4906770;29;19927;-79
2021/10/02 09:42:51;;;;;;;;;;;15.90;99.90;;;;;;4911374;29;19954;-79
2021/10/02 09:45:20;;;;;;;;;;;16.00;99.90;;;;;;4909137;29;20402;-79
2021/10/02 09:47:55;;;;;;;;;;;15.90;99.90;;;;;;4908298;29;19950;-78
2021/10/02 09:50:23;;;;;;;;;;;15.90;99.90;;;;;;4905683;29;19923;-79
2021/10/02 09:52:55;;;;;;;;;;;15.90;99.90;;;;;;4911433;29;19923;-79
2021/10/02 09:55:23;;;;;;;;;;;15.90;99.90;;;;;;4900890;29;19930;-79
2021/10/02 09:57:55;;;;;;;;;;;15.90;99.90;;;;;;4909911;29;20021;-78
2021/10/02 10:00:30;;;;;;;;;;;15.90;99.90;;;;;;4905803;29;20006;-80
2021/10/02 10:02:58;;;;;;;;;;;15.90;99.90;;;;;;4909741;29;20017;-80
2021/10/02 10:05:26;;;;;;;;;;;15.80;99.90;;;;;;4906375;29;19935;-80
2021/10/02 10:07:55;;;;;;;;;;;15.80;99.90;;;;;;4910818;29;20653;-80
2021/10/02 10:10:22;;;;;;;;;;;15.80;99.90;;;;;;4905380;29;19955;-80
2021/10/02 10:12:49;;;;;;;;;;;15.80;99.90;;;;;;4910406;29;20439;-79
2021/10/02 10:15:29;;;;;;;;;;;15.80;99.90;;;;;;4908693;29;19978;-80
2021/10/02 10:17:57;;;;;;;;;;;15.90;99.90;;;;;;4905653;29;19982;-80
2021/10/02 10:20:35;;;;;;;;;;;15.90;99.90;;;;;;4903390;29;20007;-80
2021/10/02 10:23:02;;;;;;;;;;;15.90;99.90;;;;;;4909898;29;19971;-78
2021/10/02 10:25:29;;;;;;;;;;;15.90;99.90;;;;;;4905872;29;19970;-77
2021/10/02 10:28:01;;;;;;;;;;;16.00;99.90;;;;;;4911043;29;19979;-78
2021/10/02 10:30:28;;;;;;;;;;;16.00;99.90;;;;;;4907195;29;20356;-79
2021/10/02 10:33:03;;;;;;;;;;;16.00;99.90;;;;;;4909102;29;19962;-79
2021/10/02 10:35:33;;;;;;;;;;;16.00;99.90;;;;;;4902714;29;19923;-78
2021/10/02 10:38:03;;;;;;;;;;;16.00;99.90;;;;;;4909871;29;20372;-78
2021/10/02 10:40:30;;;;;;;;;;;16.00;99.90;;;;;;4903525;29;19926;-78
2021/10/02 10:42:57;;;;;;;;;;;16.00;99.90;;;;;;4910322;29;20408;-77
2021/10/02 10:45:24;;;;;;;;;;;16.00;99.90;;;;;;4906513;29;19927;-78
2021/10/02 10:47:51;;;;;;;;;;;16.00;99.90;;;;;;4909412;29;19962;-77
2021/10/02 10:50:18;;;;;;;;;;;16.00;99.90;;;;;;4904362;29;19931;-80
2021/10/02 10:52:46;;;;;;;;;;;16.00;99.90;;;;;;4909377;29;20410;-79
2021/10/02 10:55:20;;;;;;;;;;;16.00;99.90;;;;;;4901655;29;20404;-77
2021/10/02 10:57:48;;;;;;;;;;;16.00;99.90;;;;;;4898665;29;19993;-81
2021/10/02 11:00:20;;;;;;;;;;;16.10;99.90;;;;;;4898928;29;20006;-79
2021/10/02 11:02:47;;;;;;;;;;;16.10;99.90;;;;;;4902488;29;19971;-80
2021/10/02 11:05:33;;;;;;;;;;;16.10;99.90;;;;;;4906441;29;19930;-80
2021/10/02 11:07:59;;;;;;;;;;;16.20;99.90;;;;;;4905346;29;19969;-80
2021/10/02 11:10:46;;;;;;;;;;;16.20;99.90;;;;;;4901375;29;19951;-80
2021/10/02 11:13:13;;;;;;;;;;;16.30;99.90;;;;;;4907770;29;19934;-81
2021/10/02 11:15:41;;;;;;;;;;;16.30;99.90;;;;;;4900587;29;20443;-79
2021/10/02 11:18:26;;;;;;;;;;;16.30;99.90;;;;;;4899464;29;19924;-78
2021/10/02 11:21:00;;;;;;;;;;;16.40;99.90;;;;;;4901988;29;20357;-78
2021/10/02 11:23:42;;;;;;;;;;;16.40;99.90;;;;;;4904444;29;19974;-77
2021/10/02 11:26:28;;;;;;;;;;;16.50;99.90;;;;;;4900662;29;19979;-79
2021/10/02 11:28:57;;;;;;;;;;;16.50;99.90;;;;;;4907870;29;20026;-78
2021/10/02 11:31:25;;;;;;;;;;;16.60;99.90;;;;;;4905375;29;20415;-78
2021/10/02 11:33:55;;;;;;;;;;;16.60;99.90;;;;;;4903241;29;20416;-78
2021/10/02 11:36:28;;;;;;;;;;;16.60;99.90;;;;;;4905605;29;19926;-78
2021/10/02 11:39:09;;;;;;;;;;;16.60;99.90;;;;;;4905370;29;19930;-78
2021/10/02 11:41:37;;;;;;;;;;;16.70;99.90;;;;;;4906692;29;21701;-77
2021/10/02 11:44:05;;;;;;;;;;;16.70;99.90;;;;;;4903083;29;19923;-78
2021/10/02 11:46:32;;;;;;;;;;;16.70;99.90;;;;;;4904558;29;20545;-77
2021/10/02 11:49:13;;;;;;;;;;;16.80;99.90;;;;;;4884403;29;19928;-78
2021/10/02 11:51:40;;;;;;;;;;;16.80;99.90;;;;;;4901031;29;19939;-77
2021/10/02 11:54:12;;;;;;;;;;;16.80;99.90;;;;;;4899365;29;19927;-77
2021/10/02 11:56:39;;;;;;;;;;;16.90;99.90;;;;;;4903038;29;19969;-78
2021/10/02 11:59:06;;;;;;;;;;;16.90;99.90;;;;;;4899763;29;19923;-77
2021/10/02 12:01:36;;;;;;;;;;;16.90;99.90;;;;;;4904804;29;19927;-78
2021/10/02 12:04:13;;;;;;;;;;;16.90;99.90;;;;;;4903205;29;19929;-78
2021/10/02 12:06:44;;;;;;;;;;;16.90;99.90;;;;;;4908549;29;19961;-79
2021/10/02 12:09:12;;;;;;;;;;;17.00;99.90;;;;;;4910027;29;19979;-79
2021/10/02 12:11:42;;;;;;;;;;;17.00;99.90;;;;;;4912609;29;19954;-78
2021/10/02 12:14:11;;;;;;;;;;;17.00;99.90;;;;;;4911253;29;19927;-79
2021/10/02 12:16:38;;;;;;;;;;;17.10;99.90;;;;;;4906082;29;20546;-79
2021/10/02 12:19:08;;;;;;;;;;;17.10;99.90;;;;;;4911331;29;20295;-79
2021/10/02 12:21:43;;;;;;;;;;;17.10;99.90;;;;;;4912018;29;19923;-79
2021/10/02 12:24:21;;;;;;;;;;;17.20;99.90;;;;;;4911462;29;19958;-78
2021/10/02 12:26:47;;;;;;;;;;;17.20;99.90;;;;;;4904421;29;19926;-79
2021/10/02 12:29:16;;;;;;;;;;;17.20;99.90;;;;;;4906615;29;19994;-79
2021/10/02 12:31:53;;;;;;;;;;;17.20;99.90;;;;;;4904427;29;20391;-78
2021/10/02 12:34:24;;;;;;;;;;;17.20;99.90;;;;;;4894497;29;19934;-77
2021/10/02 12:36:53;;;;;;;;;;;17.20;99.90;;;;;;4898619;29;20010;-79
2021/10/02 12:39:24;;;;;;;;;;;17.30;99.90;;;;;;4897265;29;19962;-78
2021/10/02 12:41:51;;;;;;;;;;;17.30;99.90;;;;;;4899043;29;19998;-77
2021/10/02 12:44:20;;;;;;;;;;;17.30;99.90;;;;;;4898710;29;20422;-79
2021/10/02 12:46:47;;;;;;;;;;;17.40;99.90;;;;;;4896898;29;19970;-80
2021/10/02 12:49:14;;;;;;;;;;;17.40;99.90;;;;;;4893399;29;19927;-79
2021/10/02 12:51:41;;;;;;;;;;;17.40;99.90;;;;;;4900801;29;19927;-78
2021/10/02 12:54:09;;;;;;;;;;;17.50;99.90;;;;;;4898443;29;19931;-77
2021/10/02 12:56:55;;;;;;;;;;;17.50;99.90;;;;;;4897103;29;19983;-80
2021/10/02 12:59:22;;;;;;;;;;;17.60;99.90;;;;;;4899379;29;19973;-79
2021/10/02 13:01:50;;;;;;;;;;;17.60;99.90;;;;;;4901863;29;20703;-78
2021/10/02 13:04:20;;;;;;;;;;;17.60;99.90;;;;;;4897795;29;20042;-78
2021/10/02 13:06:55;;;;;;;;;;;17.70;99.90;;;;;;4900022;29;19923;-77
2021/10/02 13:09:22;;;;;;;;;;;17.70;99.90;;;;;;4898398;29;19974;-78
2021/10/02 13:11:49;;;;;;;;;;;17.70;99.90;;;;;;4896213;29;19938;-78
2021/10/02 13:14:35;;;;;;;;;;;17.80;99.90;;;;;;4899432;29;19977;-78
2021/10/02 13:17:04;;;;;;;;;;;17.80;99.90;;;;;;4897648;29;20400;-78
2021/10/02 13:19:32;;;;;;;;;;;17.80;99.90;;;;;;4896959;29;19978;-80
2021/10/02 13:22:13;;;;;;;;;;;17.80;99.90;;;;;;4898991;29;20475;-80
2021/10/02 13:24:59;;;;;;;;;;;17.90;99.90;;;;;;4902816;29;20049;-79
2021/10/02 13:27:36;;;;;;;;;;;17.90;99.90;;;;;;4904773;29;19962;-79
2021/10/02 13:30:03;;;;;;;;;;;17.90;99.90;;;;;;4883321;29;19963;-79
2021/10/02 13:32:30;;;;;;;;;;;17.90;99.90;;;;;;4882389;29;19955;-78
2021/10/02 13:35:02;;;;;;;;;;;18.00;99.90;;;;;;4901532;29;19927;-78
2021/10/02 13:37:28;;;;;;;;;;;18.00;99.90;;;;;;4896895;29;20685;-78
2021/10/02 13:39:55;;;;;;;;;;;18.00;99.90;;;;;;4901614;29;19991;-79
2021/10/02 13:42:22;;;;;;;;;;;18.00;99.90;;;;;;4899401;29;19982;-78
2021/10/02 13:44:53;;;;;;;;;;;18.00;99.90;;;;;;4900811;29;19954;-78
2021/10/02 13:47:24;;;;;;;;;;;18.00;99.90;;;;;;4902300;29;19970;-77
2021/10/02 13:49:50;;;;;;;;;;;18.00;99.90;;;;;;4900127;29;19931;-77
2021/10/02 13:52:21;;;;;;;;;;;18.00;99.90;;;;;;4896992;29;20002;-77
2021/10/02 13:54:48;;;;;;;;;;;18.10;99.90;;;;;;4885356;29;20010;-76
2021/10/02 13:57:15;;;;;;;;;;;18.10;99.90;;;;;;4889484;29;20447;-78
2021/10/02 13:59:42;;;;;;;;;;;18.10;99.90;;;;;;4902962;29;19923;-77
2021/10/02 14:02:08;;;;;;;;;;;18.10;99.90;;;;;;4902206;29;20416;-77
2021/10/02 14:04:35;;;;;;;;;;;18.10;99.90;;;;;;4881428;29;19927;-77
2021/10/02 14:07:04;;;;;;;;;;;18.00;99.90;;;;;;4900248;29;19998;-78
2021/10/02 14:09:31;;;;;;;;;;;18.00;99.90;;;;;;4901424;29;19951;-77
2021/10/02 14:11:58;;;;;;;;;;;18.00;99.90;;;;;;4908157;29;19982;-77
2021/10/02 14:14:25;;;;;;;;;;;18.00;99.90;;;;;;4907624;29;20419;-78
2021/10/02 14:16:53;;;;;;;;;;;18.00;99.90;;;;;;4901138;29;19923;-77
2021/10/02 14:19:20;;;;;;;;;;;18.10;99.90;;;;;;4899873;29;20407;-78
2021/10/02 14:21:47;;;;;;;;;;;18.10;99.90;;;;;;4892324;29;19977;-77
2021/10/02 14:24:14;;;;;;;;;;;18.10;99.90;;;;;;4907026;29;20416;-76
2021/10/02 14:26:40;;;;;;;;;;;18.10;99.90;;;;;;4905702;29;20352;-78
2021/10/02 14:29:07;;;;;;;;;;;18.10;99.90;;;;;;4904954;29;19983;-79
2021/10/02 14:31:34;;;;;;;;;;;18.00;99.90;;;;;;4897197;29;19978;-79
2021/10/02 14:34:02;;;;;;;;;;;18.00;99.90;;;;;;4904533;29;19954;-77
2021/10/02 14:36:29;;;;;;;;;;;18.00;99.90;;;;;;4903984;29;19995;-78
2021/10/02 14:38:56;;;;;;;;;;;17.90;99.90;;;;;;4903631;29;19931;-78
2021/10/02 14:41:25;;;;;;;;;;;17.90;99.90;;;;;;4903781;29;20058;-78
2021/10/02 14:43:51;;;;;;;;;;;17.80;99.90;;;;;;4908619;29;20388;-79
2021/10/02 14:46:19;;;;;;;;;;;17.70;99.90;;;;;;4904580;29;19931;-79
2021/10/02 14:48:45;;;;;;;;;;;17.60;99.90;;;;;;4887643;29;19927;-78
2021/10/02 14:51:12;;;;;;;;;;;17.60;99.90;;;;;;4900063;29;19979;-79
2021/10/02 14:53:41;;;;;;;;;;;17.60;99.90;;;;;;4905603;29;20527;-78
2021/10/02 14:56:09;;;;;;;;;;;17.60;99.90;;;;;;4902182;29;19978;-79
2021/10/02 14:58:37;;;;;;;;;;;17.50;99.90;;;;;;4896761;29;19973;-79
2021/10/02 15:01:04;;;;;;;;;;;17.50;99.90;;;;;;4884597;29;19923;-80
2021/10/02 15:03:31;;;;;;;;;;;17.50;99.90;;;;;;4907319;29;19927;-79
2021/10/02 15:05:59;;;;;;;;;;;17.30;99.90;;;;;;4897959;29;19978;-79
2021/10/02 15:08:26;;;;;;;;;;;17.30;99.90;;;;;;4898838;29;19931;-78
2021/10/02 15:10:53;;;;;;;;;;;17.20;99.90;;;;;;4905747;29;19923;-79
2021/10/02 15:13:24;;;;;;;;;;;17.10;99.90;;;;;;4910386;29;19927;-80
2021/10/02 15:15:57;;;;;;;;;;;17.00;99.90;;;;;;4906429;29;19924;-79
2021/10/02 15:18:24;;;;;;;;;;;16.80;99.90;;;;;;4907641;29;20068;-80
2021/10/02 15:20:53;;;;;;;;;;;16.80;99.90;;;;;;4896788;29;20684;-79
2021/10/02 15:23:22;;;;;;;;;;;16.80;99.90;;;;;;4903712;29;19970;-81
2021/10/02 15:25:50;;;;;;;;;;;16.70;99.90;;;;;;4897269;29;19977;-80
2021/10/02 15:28:18;;;;;;;;;;;16.70;99.90;;;;;;4902828;29;19987;-77
2021/10/02 15:30:52;;;;;;;;;;;16.70;99.90;;;;;;4901499;29;19951;-78
2021/10/02 15:33:19;;;;;;;;;;;16.70;99.90;;;;;;4881666;29;19971;-79
2021/10/02 15:35:50;;;;;;;;;;;16.70;99.90;;;;;;4903577;29;20580;-78
2021/10/02 15:38:19;;;;;;;;;;;16.60;99.90;;;;;;4907870;29;19927;-78
2021/10/02 15:40:47;;;;;;;;;;;16.60;99.90;;;;;;4896534;29;19947;-77
2021/10/02 15:43:17;;;;;;;;;;;16.60;99.90;;;;;;4914439;29;19930;-78
2021/10/02 15:45:47;;;;;;;;;;;16.50;99.90;;;;;;4911609;29;19927;-78
2021/10/02 15:48:18;;;;;;;;;;;16.40;99.90;;;;;;4913247;29;19923;-79
2021/10/02 15:50:46;;;;;;;;;;;16.30;99.90;;;;;;4907593;29;20003;-79
2021/10/02 15:53:13;;;;;;;;;;;16.30;99.90;;;;;;4914223;29;19961;-78
2021/10/02 15:55:42;;;;;;;;;;;16.20;99.90;;;;;;4902579;29;19927;-80
2021/10/02 15:58:13;;;;;;;;;;;16.20;99.90;;;;;;4915511;29;20021;-78
2021/10/02 16:00:41;;;;;;;;;;;16.20;99.90;;;;;;4912311;29;19939;-78
2021/10/02 16:03:08;;;;;;;;;;;16.20;99.90;;;;;;4911229;29;19933;-78
2021/10/02 16:05:36;;;;;;;;;;;16.10;99.90;;;;;;4907349;29;19927;-79
2021/10/02 16:08:04;;;;;;;;;;;16.10;99.90;;;;;;4914067;29;20351;-79
2021/10/02 16:10:32;;;;;;;;;;;15.90;99.90;;;;;;4906068;29;19970;-78
2021/10/02 16:13:04;;;;;;;;;;;15.80;99.90;;;;;;4914713;29;20333;-78
2021/10/02 16:15:33;;;;;;;;;;;15.70;99.90;;;;;;4912289;29;19962;-78
2021/10/02 16:18:01;;;;;;;;;;;15.70;99.90;;;;;;4912680;29;19931;-78
2021/10/02 16:20:29;;;;;;;;;;;15.70;99.90;;;;;;4910017;29;19931;-78
2021/10/02 16:22:56;;;;;;;;;;;15.60;99.90;;;;;;4911206;29;19988;-77
2021/10/02 16:25:24;;;;;;;;;;;15.60;99.90;;;;;;4909524;29;19982;-76
2021/10/02 16:27:51;;;;;;;;;;;15.50;99.90;;;;;;4911882;29;19998;-77
2021/10/02 16:30:18;;;;;;;;;;;15.50;99.90;;;;;;4906616;29;19963;-78
2021/10/02 16:32:45;;;;;;;;;;;15.40;99.90;;;;;;4910661;29;19927;-77
2021/10/02 16:35:12;;;;;;;;;;;15.40;99.90;;;;;;4907497;29;19950;-76
2021/10/02 16:37:39;;;;;;;;;;;15.40;99.90;;;;;;4911137;29;20458;-77
2021/10/02 16:40:08;;;;;;;;;;;15.30;99.90;;;;;;4909868;29;19966;-80
2021/10/02 16:42:36;;;;;;;;;;;15.40;99.90;;;;;;4912595;29;19933;-78
2021/10/02 16:45:03;;;;;;;;;;;15.40;99.90;;;;;;4909803;29;19987;-77
2021/10/02 16:47:30;;;;;;;;;;;15.30;99.90;;;;;;4911790;29;19927;-78
2021/10/02 16:49:57;;;;;;;;;;;15.30;99.90;;;;;;4905940;29;19930;-79
2021/10/02 16:52:24;;;;;;;;;;;15.30;99.90;;;;;;4905329;29;19995;-77
2021/10/02 16:54:50;;;;;;;;;;;15.20;99.90;;;;;;4887413;29;20021;-80
2021/10/02 16:57:17;;;;;;;;;;;15.20;99.90;;;;;;4910504;29;19951;-79
2021/10/02 16:59:44;;;;;;;;;;;15.20;99.90;;;;;;4894011;29;20731;-79
2021/10/02 17:02:11;;;;;;;;;;;15.20;99.90;;;;;;4901849;29;19951;-79
2021/10/02 17:04:38;;;;;;;;;;;15.20;99.90;;;;;;4900312;29;19934;-80
2021/10/02 17:07:06;;;;;;;;;;;15.20;99.90;;;;;;4900609;29;19962;-78
2021/10/02 17:09:33;;;;;;;;;;;15.10;99.90;;;;;;4899823;29;20401;-79
2021/10/02 17:12:00;;;;;;;;;;;15.20;99.90;;;;;;4904398;29;19931;-79
2021/10/02 17:14:27;;;;;;;;;;;15.10;99.90;;;;;;4904790;29;19959;-78
2021/10/02 17:16:53;;;;;;;;;;;15.10;99.90;;;;;;4906728;29;20407;-79
2021/10/02 17:19:20;;;;;;;;;;;15.10;99.90;;;;;;4906363;29;19927;-79
2021/10/02 17:21:47;;;;;;;;;;;15.10;99.90;;;;;;4908139;29;20146;-79
2021/10/02 17:24:16;;;;;;;;;;;15.10;99.90;;;;;;4904644;29;19930;-79
2021/10/02 17:26:43;;;;;;;;;;;15.10;99.90;;;;;;4902351;29;19923;-79
2021/10/02 17:29:10;;;;;;;;;;;15.10;99.90;;;;;;4906629;29;19958;-80
2021/10/02 17:31:37;;;;;;;;;;;15.10;99.90;;;;;;4898233;29;19974;-78
2021/10/02 17:34:04;;;;;;;;;;;15.10;99.90;;;;;;4892988;29;20304;-78
2021/10/02 17:36:34;;;;;;;;;;;15.10;99.90;;;;;;4902093;29;19978;-79
2021/10/02 17:39:01;;;;;;;;;;;15.00;99.90;;;;;;4897440;29;20046;-78
2021/10/02 17:41:27;;;;;;;;;;;15.00;99.90;;;;;;4898679;29;19924;-79
2021/10/02 17:43:54;;;;;;;;;;;15.00;99.90;;;;;;4898503;29;19970;-78
2021/10/02 17:46:21;;;;;;;;;;;15.00;99.90;;;;;;4906050;29;19963;-77
2021/10/02 17:48:49;;;;;;;;;;;15.00;99.90;;;;;;4891792;29;20045;-80
2021/10/02 17:51:16;;;;;;;;;;;15.00;99.90;;;;;;4902389;29;19927;-78
2021/10/02 17:53:43;;;;;;;;;;;15.00;99.90;;;;;;4907635;29;19930;-79
2021/10/02 17:56:11;;;;;;;;;;;14.90;99.90;;;;;;4905908;29;19927;-78
2021/10/02 17:58:38;;;;;;;;;;;14.90;99.90;;;;;;4908666;29;20399;-80
2021/10/02 18:01:07;;;;;;;;;;;14.90;99.90;;;;;;4907217;29;19923;-79
2021/10/02 18:03:35;;;;;;;;;;;14.80;99.90;;;;;;4907901;29;19927;-79
2021/10/02 18:06:03;;;;;;;;;;;14.70;99.90;;;;;;4886265;29;19923;-78
2021/10/02 18:08:30;;;;;;;;;;;14.70;99.90;;;;;;4906340;29;19978;-78
2021/10/02 18:10:57;;;;;;;;;;;14.70;99.90;;;;;;4888970;29;19927;-78
2021/10/02 18:13:24;;;;;;;;;;;14.60;99.90;;;;;;4908692;29;19966;-78
2021/10/02 18:15:51;;;;;;;;;;;14.60;99.90;;;;;;4907135;29;20014;-78
2021/10/02 18:18:18;;;;;;;;;;;14.60;99.90;;;;;;4901554;29;19927;-78
2021/10/02 18:20:45;;;;;;;;;;;14.60;99.90;;;;;;4896134;29;19974;-79
2021/10/02 18:23:15;;;;;;;;;;;14.60;99.90;;;;;;4900352;29;19987;-79
2021/10/02 18:25:59;;;;;;;;;;;14.60;99.90;;;;;;4906412;29;19926;-80
2021/10/02 18:28:25;;;;;;;;;;;14.60;99.90;;;;;;4910117;29;19990;-80
2021/10/02 18:30:53;;;;;;;;;;;14.60;99.90;;;;;;4907545;29;20294;-80
2021/10/02 18:33:20;;;;;;;;;;;14.60;99.90;;;;;;4907530;29;20471;-80
2021/10/02 18:35:47;;;;;;;;;;;14.60;99.90;;;;;;4902646;29;19931;-80
2021/10/02 18:38:14;;;;;;;;;;;14.60;99.90;;;;;;4909268;29;19923;-79
2021/10/02 18:40:42;;;;;;;;;;;14.70;99.90;;;;;;4901066;29;19927;-80
2021/10/02 18:43:10;;;;;;;;;;;14.70;99.90;;;;;;4909537;29;19930;-79
2021/10/02 18:45:38;;;;;;;;;;;14.70;99.90;;;;;;4907770;29;19970;-79
2021/10/02 18:48:05;;;;;;;;;;;14.70;99.90;;;;;;4907214;29;20013;-78
2021/10/02 18:50:33;;;;;;;;;;;14.70;99.90;;;;;;4905008;29;19985;-78
2021/10/02 18:53:00;;;;;;;;;;;14.70;99.90;;;;;;4907637;29;20040;-79
2021/10/02 18:55:27;;;;;;;;;;;14.70;99.90;;;;;;4901949;29;20538;-79
2021/10/02 18:57:54;;;;;;;;;;;14.70;99.90;;;;;;4910396;29;20388;-79
2021/10/02 19:00:21;;;;;;;;;;;14.60;99.90;;;;;;4906584;29;20404;-79
2021/10/02 19:02:48;;;;;;;;;;;14.60;99.90;;;;;;4907837;29;19978;-79
2021/10/02 19:05:15;;;;;;;;;;;14.60;99.90;;;;;;4906577;29;19923;-79
2021/10/02 19:07:43;;;;;;;;;;;14.60;99.90;;;;;;4908050;29;19962;-79
2021/10/02 19:10:12;;;;;;;;;;;14.50;99.90;;;;;;4903791;29;19990;-79
2021/10/02 19:12:39;;;;;;;;;;;14.50;99.90;;;;;;4909797;29;19927;-79
2021/10/02 19:15:06;;;;;;;;;;;14.50;99.90;;;;;;4904969;29;20649;-79
2021/10/02 19:17:33;;;;;;;;;;;14.50;99.90;;;;;;4901173;29;19958;-79
2021/10/02 19:20:00;;;;;;;;;;;14.50;99.90;;;;;;4899594;29;19974;-78
2021/10/02 19:22:27;;;;;;;;;;;14.50;99.90;;;;;;4893838;29;20546;-79
2021/10/02 19:24:53;;;;;;;;;;;14.50;99.90;;;;;;4907702;29;20456;-79
2021/10/02 19:27:20;;;;;;;;;;;14.50;99.90;;;;;;4904541;29;19927;-79
2021/10/02 19:29:47;;;;;;;;;;;14.50;99.90;;;;;;4886170;29;19979;-79
2021/10/02 19:32:14;;;;;;;;;;;14.50;99.90;;;;;;4898638;29;20451;-79
2021/10/02 19:34:41;;;;;;;;;;;14.50;99.90;;;;;;4895648;29;20006;-80
2021/10/02 19:37:07;;;;;;;;;;;14.50;99.90;;;;;;4904710;29;19931;-79
2021/10/02 19:39:34;;;;;;;;;;;14.50;99.90;;;;;;4904517;29;19927;-80
2021/10/02 19:42:01;;;;;;;;;;;14.60;99.90;;;;;;4909670;29;19978;-80
2021/10/02 19:44:28;;;;;;;;;;;14.50;99.90;;;;;;4905560;29;19950;-80
2021/10/02 19:46:59;;;;;;;;;;;14.50;99.90;;;;;;4898528;29;19923;-80
2021/10/02 19:49:26;;;;;;;;;;;14.50;99.90;;;;;;4905294;29;19997;-79
2021/10/02 19:51:53;;;;;;;;;;;14.50;99.90;;;;;;4901812;29;20416;-79
2021/10/02 19:54:19;;;;;;;;;;;14.50;99.90;;;;;;4905115;29;19995;-80
2021/10/02 19:56:46;;;;;;;;;;;14.50;99.90;;;;;;4902294;29;19927;-80
2021/10/02 19:59:13;;;;;;;;;;;14.50;99.90;;;;;;4896573;29;19965;-78
2021/10/02 20:01:40;;;;;;;;;;;14.50;99.90;;;;;;4908975;29;20388;-79
2021/10/02 20:04:07;;;;;;;;;;;14.40;99.90;;;;;;4905141;29;19927;-79
2021/10/02 20:06:33;;;;;;;;;;;14.40;99.90;;;;;;4906858;29;20443;-79
2021/10/02 20:09:00;;;;;;;;;;;14.40;99.90;;;;;;4906950;29;19931;-78
2021/10/02 20:11:27;;;;;;;;;;;14.40;99.90;;;;;;4905810;29;19923;-79
2021/10/02 20:13:55;;;;;;;;;;;14.40;99.90;;;;;;4890456;29;20459;-79
2021/10/02 20:16:22;;;;;;;;;;;14.40;99.90;;;;;;4904643;29;19933;-80
2021/10/02 20:18:49;;;;;;;;;;;14.40;99.90;;;;;;4906744;29;19943;-79
2021/10/02 20:21:15;;;;;;;;;;;14.40;99.90;;;;;;4911347;29;19954;-79
2021/10/02 20:23:42;;;;;;;;;;;14.40;99.90;;;;;;4906369;29;19931;-79